createdAt,value
2023-12-13T00:02:03.035Z,4.60
2023-12-13T00:04:30.522Z,11.05
2023-12-13T00:06:57.955Z,6.72
2023-12-13T00:09:25.398Z,7.88
2023-12-13T00:11:52.803Z,9.43
2023-12-13T00:14:21.980Z,6.30
2023-12-13T00:16:49.442Z,5.75
2023-12-13T00:19:18.379Z,5.13
2023-12-13T00:21:46.302Z,11.20
2023-12-13T00:24:13.874Z,8.05
2023-12-13T00:26:41.950Z,11.35
2023-12-13T00:29:09.726Z,7.82
2023-12-13T00:31:37.350Z,7.07
2023-12-13T00:34:05.825Z,7.53
2023-12-13T00:36:34.838Z,6.00
2023-12-13T00:39:02.243Z,4.85
2023-12-13T00:41:29.647Z,9.25
2023-12-13T00:43:57.111Z,10.60
2023-12-13T00:46:24.660Z,9.57
2023-12-13T00:48:52.237Z,7.97
2023-12-13T00:51:21.401Z,5.15
2023-12-13T00:53:50.745Z,10.75
2023-12-13T00:56:18.882Z,7.90
2023-12-13T00:58:48.630Z,4.65
2023-12-13T01:01:17.359Z,6.03
2023-12-13T01:03:44.861Z,7.22
2023-12-13T01:06:12.510Z,5.47
2023-12-13T01:08:40.118Z,7.15
2023-12-13T01:11:12.819Z,4.63
2023-12-13T01:13:40.609Z,8.73
2023-12-13T01:16:08.648Z,6.97
2023-12-13T01:18:36.588Z,5.68
2023-12-13T01:21:04.415Z,5.82
2023-12-13T01:23:32.015Z,5.72
2023-12-13T01:25:59.451Z,8.32
2023-12-13T01:28:28.228Z,6.97
2023-12-13T01:30:55.886Z,7.25
2023-12-13T01:33:23.435Z,10.40
2023-12-13T01:35:51.011Z,6.82
2023-12-13T01:38:18.497Z,6.13
2023-12-13T01:41:10.801Z,8.20
2023-12-13T01:43:41.406Z,7.35
2023-12-13T01:46:09.797Z,7.22
2023-12-13T01:48:37.960Z,13.43
2023-12-13T01:51:05.718Z,6.13
2023-12-13T01:53:35.188Z,10.88
2023-12-13T01:56:04.666Z,9.82
2023-12-13T01:58:32.188Z,6.93
2023-12-13T02:01:00.982Z,4.40
2023-12-13T02:03:28.639Z,9.00
2023-12-13T02:05:56.041Z,10.93
2023-12-13T02:08:24.219Z,8.88
2023-12-13T02:10:51.957Z,8.45
2023-12-13T02:13:19.558Z,11.05
2023-12-13T02:15:47.721Z,8.13
2023-12-13T02:18:16.800Z,7.18
2023-12-13T02:20:44.366Z,8.27
2023-12-13T02:23:13.397Z,10.98
2023-12-13T02:25:57.959Z,8.55
2023-12-13T02:28:26.695Z,8.52
2023-12-13T02:30:56.079Z,10.15
2023-12-13T02:33:24.916Z,6.60
2023-12-13T02:35:52.884Z,5.63
2023-12-13T02:38:21.670Z,7.00
2023-12-13T02:40:49.211Z,10.40
2023-12-13T02:43:16.901Z,9.93
2023-12-13T02:45:44.441Z,6.65
2023-12-13T02:48:12.016Z,11.30
2023-12-13T02:50:40.235Z,6.57
2023-12-13T02:53:08.195Z,11.15
2023-12-13T02:55:36.923Z,12.10
2023-12-13T02:58:05.865Z,12.10
2023-12-13T03:00:33.426Z,9.95
2023-12-13T03:03:00.982Z,7.28
2023-12-13T03:05:28.480Z,7.60
2023-12-13T03:07:56.177Z,7.32
2023-12-13T03:10:23.768Z,6.85
2023-12-13T03:12:52.537Z,6.13
2023-12-13T03:15:19.940Z,7.90
2023-12-13T03:17:47.465Z,10.13
2023-12-13T03:20:14.081Z,8.77
2023-12-13T03:22:41.542Z,8.52
2023-12-13T03:25:09.575Z,7.85
2023-12-13T03:27:37.318Z,6.60
2023-12-13T03:30:07.335Z,10.15
2023-12-13T03:32:34.768Z,9.40
2023-12-13T03:35:02.227Z,9.23
2023-12-13T03:37:32.987Z,7.25
2023-12-13T03:40:00.688Z,6.32
2023-12-13T03:42:28.270Z,7.97
2023-12-13T03:44:57.153Z,7.15
2023-12-13T03:47:26.020Z,8.88
2023-12-13T03:49:53.780Z,8.40
2023-12-13T03:52:21.220Z,9.07
2023-12-13T03:54:48.629Z,8.20
2023-12-13T03:57:16.677Z,5.07
2023-12-13T03:59:44.135Z,7.57
2023-12-13T04:02:11.625Z,5.88
2023-12-13T04:04:40.538Z,6.50
2023-12-13T04:07:09.471Z,7.72
2023-12-13T04:09:37.033Z,6.93
2023-12-13T04:12:05.232Z,5.95
2023-12-13T04:14:32.654Z,5.35
2023-12-13T04:17:00.137Z,9.27
2023-12-13T04:19:27.581Z,6.78
2023-12-13T04:21:56.355Z,5.60
2023-12-13T04:24:23.765Z,11.35
2023-12-13T04:26:51.211Z,5.93
2023-12-13T04:29:18.672Z,6.00
2023-12-13T04:31:46.107Z,8.90
2023-12-13T04:34:13.656Z,7.35
2023-12-13T04:36:41.155Z,6.88
2023-12-13T04:39:09.909Z,5.05
2023-12-13T04:41:39.637Z,6.50
2023-12-13T04:44:08.876Z,5.70
2023-12-13T04:46:36.946Z,5.35
2023-12-13T04:49:04.600Z,5.82
2023-12-13T04:51:32.047Z,4.22
2023-12-13T04:53:59.852Z,7.00
2023-12-13T04:56:28.723Z,6.10
2023-12-13T04:58:56.195Z,5.45
2023-12-13T05:01:23.697Z,4.40
2023-12-13T05:03:51.245Z,3.20
2023-12-13T05:06:18.741Z,2.83
2023-12-13T05:08:46.215Z,5.50
2023-12-13T05:11:13.652Z,4.55
2023-12-13T05:13:42.544Z,6.38
2023-12-13T05:16:10.594Z,3.88
2023-12-13T05:18:38.065Z,4.95
2023-12-13T05:21:06.139Z,5.47
2023-12-13T05:23:33.553Z,5.65
2023-12-13T05:26:00.986Z,4.50
2023-12-13T05:28:29.509Z,3.70
2023-12-13T05:30:58.467Z,6.47
2023-12-13T05:33:25.997Z,5.22
2023-12-13T05:35:53.478Z,5.25
2023-12-13T05:38:21.323Z,4.18
2023-12-13T05:40:48.814Z,4.97
2023-12-13T05:43:16.289Z,5.00
2023-12-13T05:45:43.740Z,4.50
2023-12-13T05:48:14.070Z,4.50
2023-12-13T05:50:41.547Z,6.93
2023-12-13T05:53:09.010Z,8.50
2023-12-13T05:55:36.458Z,5.35
2023-12-13T05:58:03.949Z,4.47
2023-12-13T06:00:31.873Z,4.15
2023-12-13T06:03:00.311Z,6.00
2023-12-13T06:05:29.205Z,4.15
2023-12-13T06:07:57.461Z,4.57
2023-12-13T06:10:24.979Z,5.80
2023-12-13T06:12:53.926Z,6.95
2023-12-13T06:15:22.561Z,5.22
2023-12-13T06:17:50.109Z,4.82
2023-12-13T06:20:17.862Z,5.38
2023-12-13T06:22:46.735Z,4.07
2023-12-13T06:25:14.381Z,5.70
2023-12-13T06:27:41.857Z,4.93
2023-12-13T06:30:13.310Z,5.03
2023-12-13T06:32:40.844Z,5.97
2023-12-13T06:35:08.903Z,6.35
2023-12-13T06:37:36.682Z,4.80
2023-12-13T06:40:06.855Z,7.22
2023-12-13T06:42:34.448Z,7.18
2023-12-13T06:45:02.049Z,6.13
2023-12-13T06:47:30.794Z,4.13
2023-12-13T06:49:58.468Z,4.95
2023-12-13T06:52:26.226Z,5.43
2023-12-13T06:54:58.272Z,5.28
2023-12-13T06:57:26.987Z,4.47
2023-12-13T06:59:54.399Z,5.25
2023-12-13T07:02:21.914Z,7.85
2023-12-13T07:04:49.385Z,4.70
2023-12-13T07:07:17.086Z,4.95
2023-12-13T07:09:45.537Z,5.28
2023-12-13T07:12:13.402Z,3.90
2023-12-13T07:14:42.150Z,6.57
2023-12-13T07:17:09.923Z,4.32
2023-12-13T07:19:37.584Z,5.65
2023-12-13T07:22:05.463Z,4.68
2023-12-13T07:24:32.876Z,4.68
2023-12-13T07:27:00.317Z,4.00
2023-12-13T07:29:27.757Z,5.18
2023-12-13T07:31:56.641Z,6.28
2023-12-13T07:34:24.853Z,3.75
2023-12-13T07:36:54.600Z,5.20
2023-12-13T07:39:22.115Z,3.30
2023-12-13T07:41:49.526Z,8.23
2023-12-13T07:44:17.975Z,5.72
2023-12-13T07:46:45.474Z,6.07
2023-12-13T07:49:14.390Z,6.18
2023-12-13T07:51:41.873Z,5.68
2023-12-13T07:54:10.381Z,4.90
2023-12-13T07:56:37.857Z,5.55
2023-12-13T07:59:05.393Z,3.60
2023-12-13T08:01:33.300Z,4.82
2023-12-13T08:04:00.804Z,6.63
2023-12-13T08:06:30.251Z,5.50
2023-12-13T08:08:57.695Z,6.53
2023-12-13T08:11:25.166Z,7.93
2023-12-13T08:13:53.392Z,6.90
2023-12-13T08:16:20.926Z,7.95
2023-12-13T08:18:49.317Z,5.57
2023-12-13T08:21:16.795Z,3.78
2023-12-13T08:23:46.301Z,6.88
2023-12-13T08:26:14.376Z,4.88
2023-12-13T08:28:42.283Z,5.43
2023-12-13T08:31:17.570Z,5.68
2023-12-13T08:33:51.703Z,6.28
2023-12-13T08:36:19.372Z,6.03
2023-12-13T08:38:48.135Z,4.68
2023-12-13T08:41:17.174Z,5.68
2023-12-13T08:43:44.976Z,4.93
2023-12-13T08:46:13.236Z,3.67
2023-12-13T08:48:40.791Z,5.53
2023-12-13T08:51:08.301Z,5.47
2023-12-13T08:53:36.265Z,3.38
2023-12-13T08:56:06.208Z,4.07
2023-12-13T08:58:33.848Z,4.40
2023-12-13T09:01:03.032Z,4.22
2023-12-13T09:03:31.286Z,3.53
2023-12-13T09:05:58.713Z,2.90
2023-12-13T09:08:27.265Z,4.90
2023-12-13T09:10:54.726Z,2.92
2023-12-13T09:13:23.513Z,3.97
2023-12-13T09:15:50.937Z,3.15
2023-12-13T09:18:18.727Z,5.72
2023-12-13T09:20:47.001Z,4.00
2023-12-13T09:23:22.141Z,3.75
2023-12-13T09:25:49.839Z,6.75
2023-12-13T09:28:17.435Z,5.10
2023-12-13T09:30:46.621Z,4.28
2023-12-13T09:33:14.987Z,4.05
2023-12-13T09:35:44.911Z,3.60
2023-12-13T09:38:12.427Z,3.78
2023-12-13T09:40:40.008Z,2.72
2023-12-13T09:43:08.232Z,3.42
2023-12-13T09:45:38.020Z,4.80
2023-12-13T09:48:09.100Z,7.38
2023-12-13T09:50:38.366Z,4.07
2023-12-13T09:53:06.960Z,3.78
2023-12-13T09:55:37.668Z,3.92
2023-12-13T09:58:05.321Z,4.55
2023-12-13T10:00:33.221Z,4.63
2023-12-13T10:03:00.677Z,3.95
2023-12-13T10:05:30.453Z,3.90
2023-12-13T10:08:03.453Z,4.93
2023-12-13T10:10:32.336Z,6.13
2023-12-13T10:13:01.325Z,6.40
2023-12-13T10:15:31.616Z,4.38
2023-12-13T10:18:00.327Z,3.22
2023-12-13T10:20:31.225Z,3.38
2023-12-13T10:22:58.976Z,3.80
2023-12-13T10:25:26.481Z,3.58
2023-12-13T10:27:55.247Z,4.95
2023-12-13T10:30:23.836Z,3.20
2023-12-13T10:32:51.697Z,4.20
2023-12-13T10:35:20.704Z,2.97
2023-12-13T10:37:51.416Z,3.38
2023-12-13T10:40:21.570Z,3.83
2023-12-13T10:42:53.750Z,4.03
2023-12-13T10:45:22.740Z,3.40
2023-12-13T10:47:52.319Z,3.58
2023-12-13T10:50:23.368Z,3.65
2023-12-13T10:52:53.593Z,4.90
2023-12-13T10:55:21.470Z,4.63
2023-12-13T10:57:49.757Z,3.03
2023-12-13T11:00:18.805Z,3.95
2023-12-13T11:02:53.004Z,3.47
2023-12-13T11:05:21.242Z,3.50
2023-12-13T11:07:48.992Z,4.95
2023-12-13T11:10:17.863Z,7.63
2023-12-13T11:12:50.650Z,3.35
2023-12-13T11:15:18.950Z,3.42
2023-12-13T11:17:49.611Z,3.50
2023-12-13T11:20:18.763Z,2.85
2023-12-13T11:22:48.994Z,4.53
2023-12-13T11:25:18.892Z,3.13
2023-12-13T11:27:53.096Z,3.05
2023-12-13T11:30:23.441Z,2.55
2023-12-13T11:32:52.895Z,4.35
2023-12-13T11:35:22.256Z,5.55
2023-12-13T11:37:50.491Z,4.47
2023-12-13T11:40:19.751Z,5.07
2023-12-13T11:42:47.518Z,3.78
2023-12-13T11:45:15.065Z,7.60
2023-12-13T11:47:48.021Z,6.03
2023-12-13T11:50:17.671Z,5.03
2023-12-13T11:52:46.267Z,5.05
2023-12-13T11:55:17.635Z,3.53
2023-12-13T11:57:48.374Z,3.13
2023-12-13T12:00:19.473Z,4.68
2023-12-13T12:02:47.253Z,7.53
2023-12-13T12:05:15.029Z,4.03
2023-12-13T12:07:42.754Z,4.40
2023-12-13T12:10:11.929Z,3.42
2023-12-13T12:12:39.577Z,5.05
2023-12-13T12:15:12.223Z,3.30
2023-12-13T12:17:40.028Z,3.10
2023-12-13T12:20:08.802Z,1.05
2023-12-13T12:22:38.118Z,0.95
2023-12-13T12:25:06.663Z,0.82
2023-12-13T12:27:36.902Z,0.70
2023-12-13T12:30:05.050Z,2.55
2023-12-13T12:32:33.853Z,1.85
2023-12-13T12:35:03.763Z,1.23
2023-12-13T12:37:31.639Z,1.58
2023-12-13T12:39:59.312Z,0.70
2023-12-13T12:42:27.871Z,0.57
2023-12-13T12:44:55.293Z,2.03
2023-12-13T12:47:23.320Z,1.73
2023-12-13T12:49:56.033Z,4.68
2023-12-13T12:52:27.235Z,1.98
2023-12-13T12:54:55.786Z,1.13
2023-12-13T12:57:30.916Z,1.42
2023-12-13T12:59:58.773Z,1.27
2023-12-13T13:02:29.312Z,0.95
2023-12-13T13:04:58.777Z,3.30
2023-12-13T13:07:26.845Z,2.05
2023-12-13T13:09:56.573Z,0.82
2023-12-13T13:12:29.510Z,2.65
2023-12-13T13:14:57.896Z,0.80
2023-12-13T13:17:26.111Z,1.45
2023-12-13T13:19:53.650Z,0.50
2023-12-13T13:22:25.615Z,1.08
2023-12-13T13:24:53.344Z,1.52
2023-12-13T13:27:27.987Z,1.20
2023-12-13T13:29:56.528Z,0.50
2023-12-13T13:32:24.155Z,0.75
2023-12-13T13:34:51.650Z,1.55
2023-12-13T13:37:19.217Z,1.00
2023-12-13T13:39:49.226Z,1.02
2023-12-13T13:42:17.715Z,1.55
2023-12-13T13:44:45.399Z,0.82
2023-12-13T13:47:14.663Z,1.83
2023-12-13T13:49:42.336Z,0.70
2023-12-13T13:52:10.420Z,0.60
2023-12-13T13:54:37.861Z,2.40
2023-12-13T13:57:07.124Z,1.33
2023-12-13T13:59:34.714Z,1.08
2023-12-13T14:02:02.226Z,2.05
2023-12-13T14:04:29.812Z,0.73
2023-12-13T14:06:57.462Z,1.00
2023-12-13T14:09:24.948Z,1.60
2023-12-13T14:11:53.434Z,0.60
2023-12-13T14:14:23.285Z,4.07
2023-12-13T14:16:50.823Z,3.58
2023-12-13T14:19:18.444Z,1.02
2023-12-13T14:21:46.231Z,2.20
2023-12-13T14:24:13.648Z,1.65
2023-12-13T14:26:41.077Z,1.80
2023-12-13T14:29:08.527Z,1.27
2023-12-13T14:31:37.957Z,5.82
2023-12-13T14:34:05.517Z,0.73
2023-12-13T14:36:33.162Z,2.03
2023-12-13T14:39:00.657Z,3.30
2023-12-13T14:41:29.587Z,1.25
2023-12-13T14:43:57.168Z,0.95
2023-12-13T14:46:24.816Z,2.53
2023-12-13T14:48:54.271Z,1.77
2023-12-13T14:51:22.699Z,1.25
2023-12-13T14:53:51.524Z,2.63
2023-12-13T14:56:20.156Z,0.82
2023-12-13T14:58:47.558Z,1.80
2023-12-13T15:01:16.247Z,2.67
2023-12-13T15:03:43.741Z,1.67
2023-12-13T15:06:12.664Z,3.60
2023-12-13T15:08:40.674Z,1.02
2023-12-13T15:11:08.357Z,3.08
2023-12-13T15:13:36.493Z,1.58
2023-12-13T15:16:05.819Z,2.08
2023-12-13T15:18:34.170Z,2.25
2023-12-13T15:21:01.699Z,2.47
2023-12-13T15:23:30.676Z,1.17
2023-12-13T15:25:58.253Z,2.78
2023-12-13T15:28:25.928Z,1.42
2023-12-13T15:30:53.448Z,1.88
2023-12-13T15:33:21.297Z,7.18
2023-12-13T15:35:48.785Z,5.63
2023-12-13T15:38:16.319Z,6.93
2023-12-13T15:40:46.200Z,7.47
2023-12-13T15:43:13.626Z,9.27
2023-12-13T15:45:42.774Z,7.60
2023-12-13T15:48:11.280Z,7.20
2023-12-13T15:50:39.147Z,7.63
2023-12-13T15:53:08.614Z,8.45
2023-12-13T15:55:36.141Z,7.57
2023-12-13T15:58:05.031Z,9.10
2023-12-13T16:00:32.433Z,11.50
2023-12-13T16:03:00.900Z,9.02
2023-12-13T16:05:28.656Z,7.03
2023-12-13T16:07:56.312Z,8.65
2023-12-13T16:10:23.888Z,8.23
2023-12-13T16:12:51.520Z,13.80
2023-12-13T16:15:21.173Z,9.80
2023-12-13T16:17:49.346Z,8.55
2023-12-13T16:20:17.076Z,9.30
2023-12-13T16:22:44.685Z,10.82
2023-12-13T16:25:12.171Z,9.27
2023-12-13T16:27:40.138Z,10.52
2023-12-13T16:30:08.804Z,12.85
2023-12-13T16:32:38.092Z,8.38
2023-12-13T16:35:06.540Z,9.32
2023-12-13T16:37:37.098Z,9.38
2023-12-13T16:40:05.611Z,9.95
2023-12-13T16:42:33.222Z,12.20
2023-12-13T16:45:00.774Z,9.90
2023-12-13T16:47:28.261Z,9.35
2023-12-13T16:49:57.887Z,9.00
2023-12-13T16:52:25.370Z,9.60
2023-12-13T16:54:52.800Z,9.32
2023-12-13T16:57:21.785Z,8.15
2023-12-13T16:59:49.220Z,8.27
2023-12-13T17:02:16.752Z,9.70
2023-12-13T17:05:06.342Z,9.55
2023-12-13T17:07:34.660Z,7.72
2023-12-13T17:10:02.391Z,32.85
2023-12-13T17:12:29.860Z,13.20
2023-12-13T17:15:03.442Z,10.02
2023-12-13T17:17:32.094Z,10.15
2023-12-13T17:19:59.656Z,7.72
2023-12-13T17:22:31.983Z,8.55
2023-12-13T17:25:00.072Z,8.43
2023-12-13T17:27:28.403Z,10.80
2023-12-13T17:29:55.854Z,8.85
2023-12-13T17:32:23.597Z,11.40
2023-12-13T17:34:51.105Z,11.07
2023-12-13T17:37:19.967Z,11.80
2023-12-13T17:39:48.917Z,10.77
2023-12-13T17:42:16.439Z,11.48
2023-12-13T17:44:43.923Z,9.88
2023-12-13T17:47:11.533Z,12.05
2023-12-13T17:49:40.211Z,15.10
2023-12-13T17:52:08.599Z,13.07
2023-12-13T17:54:36.122Z,9.85
2023-12-13T17:57:06.264Z,9.77
2023-12-13T17:59:34.059Z,14.60
2023-12-13T18:02:02.130Z,10.05
2023-12-13T18:04:34.463Z,10.80
2023-12-13T18:07:02.141Z,10.45
2023-12-13T18:09:30.246Z,10.77
2023-12-13T18:11:57.791Z,14.52
2023-12-13T18:14:26.530Z,11.82
2023-12-13T18:16:54.224Z,10.80
2023-12-13T18:19:21.718Z,12.80
2023-12-13T18:21:52.892Z,12.35
2023-12-13T18:24:21.438Z,10.30
2023-12-13T18:26:49.256Z,12.45
2023-12-13T18:29:16.707Z,11.77
2023-12-13T18:31:47.002Z,12.55
2023-12-13T18:34:14.599Z,13.13
2023-12-13T18:36:42.020Z,12.93
2023-12-13T18:39:10.496Z,12.52
2023-12-13T18:41:37.973Z,13.77
2023-12-13T18:44:05.599Z,11.57
2023-12-13T18:46:33.081Z,12.02
2023-12-13T18:49:01.908Z,13.45
2023-12-13T18:51:29.335Z,12.95
2023-12-13T18:53:57.172Z,10.82
2023-12-13T18:56:24.641Z,10.85
2023-12-13T18:58:52.105Z,12.70
2023-12-13T19:01:19.608Z,13.15
2023-12-13T19:03:47.066Z,10.63
2023-12-13T19:06:15.849Z,12.55
2023-12-13T19:08:43.272Z,13.50
2023-12-13T19:11:12.445Z,12.25
2023-12-13T19:13:40.025Z,14.43
2023-12-13T19:16:08.309Z,13.13
2023-12-13T19:18:36.200Z,11.35
2023-12-13T19:21:03.911Z,11.68
2023-12-13T19:23:32.666Z,12.55
2023-12-13T19:26:00.145Z,14.77
2023-12-13T19:28:27.629Z,15.07
2023-12-13T19:30:56.134Z,11.48
2023-12-13T19:33:23.808Z,11.00
2023-12-13T19:35:51.240Z,12.70
2023-12-13T19:38:18.947Z,15.32
2023-12-13T19:40:47.745Z,11.63
2023-12-13T19:43:15.189Z,15.93
2023-12-13T19:45:42.800Z,13.38
2023-12-13T19:48:10.354Z,16.60
2023-12-13T19:50:38.070Z,16.48
2023-12-13T19:53:05.628Z,9.32
2023-12-13T19:55:33.118Z,11.15
2023-12-13T19:58:01.903Z,13.27
2023-12-13T20:00:30.085Z,11.85
2023-12-13T20:02:58.239Z,14.25
2023-12-13T20:05:25.778Z,13.25
2023-12-13T20:07:53.366Z,13.35
2023-12-13T20:10:20.798Z,16.58
2023-12-13T20:12:48.269Z,12.93
2023-12-13T20:15:20.113Z,15.73
2023-12-13T20:17:47.616Z,13.07
2023-12-13T20:20:15.396Z,15.55
2023-12-13T20:22:42.976Z,13.35
2023-12-13T20:25:11.021Z,16.10
2023-12-13T20:27:40.114Z,12.52
2023-12-13T20:30:09.121Z,12.50
2023-12-13T20:32:39.569Z,16.70
2023-12-13T20:35:08.573Z,17.00
2023-12-13T20:37:37.645Z,11.77
2023-12-13T20:40:07.547Z,11.27
2023-12-13T20:42:36.957Z,16.98
2023-12-13T20:45:06.077Z,11.30
2023-12-13T20:47:35.834Z,15.82
2023-12-13T20:50:05.466Z,13.45
2023-12-13T20:52:32.990Z,17.33
2023-12-13T20:55:00.408Z,13.45
2023-12-13T20:57:28.097Z,10.65
2023-12-13T20:59:56.064Z,15.80
2023-12-13T21:02:24.050Z,13.65
2023-12-13T21:04:51.582Z,13.85
2023-12-13T21:07:21.069Z,16.95
2023-12-13T21:09:48.484Z,19.42
2023-12-13T21:12:17.091Z,14.52
2023-12-13T21:14:44.647Z,14.25
2023-12-13T21:17:12.088Z,14.48
2023-12-13T21:19:39.580Z,13.35
2023-12-13T21:22:07.147Z,17.23
2023-12-13T21:24:37.536Z,15.55
2023-12-13T21:27:05.328Z,13.25
2023-12-13T21:29:32.841Z,13.95
2023-12-13T21:32:00.442Z,18.50
2023-12-13T21:34:28.054Z,11.82
2023-12-13T21:36:55.511Z,15.13
2023-12-13T21:39:24.124Z,14.43
2023-12-13T21:41:52.859Z,16.08
2023-12-13T21:44:20.256Z,16.30
2023-12-13T21:46:49.060Z,16.23
2023-12-13T21:49:16.532Z,14.55
2023-12-13T21:51:44.147Z,17.33
2023-12-13T21:54:11.544Z,15.10
2023-12-13T21:56:39.088Z,12.52
2023-12-13T21:59:07.992Z,14.48
2023-12-13T22:01:35.829Z,15.40
2023-12-13T22:04:04.466Z,16.70
2023-12-13T22:06:31.961Z,14.48
2023-12-13T22:08:59.373Z,18.35
2023-12-13T22:11:27.163Z,14.18
2023-12-13T22:13:54.693Z,18.17
2023-12-13T22:16:23.510Z,14.85
2023-12-13T22:19:00.456Z,16.88
2023-12-13T22:21:28.174Z,14.43
2023-12-13T22:23:55.868Z,14.43
2023-12-13T22:26:23.340Z,13.43
2023-12-13T22:28:50.803Z,13.70
2023-12-13T22:31:18.279Z,14.77
2023-12-13T22:33:47.096Z,11.75
2023-12-13T22:36:14.680Z,15.05
2023-12-13T22:38:42.100Z,11.35
2023-12-13T22:41:09.525Z,15.13
2023-12-13T22:43:36.967Z,11.18
2023-12-13T22:46:04.989Z,12.23
2023-12-13T22:48:32.388Z,10.68
2023-12-13T22:51:01.128Z,16.77
2023-12-13T22:53:28.523Z,14.13
2023-12-13T22:55:55.989Z,16.30
2023-12-13T22:58:23.651Z,14.60
2023-12-13T23:00:51.103Z,13.05
2023-12-13T23:03:18.548Z,10.95
2023-12-13T23:05:46.016Z,10.55
2023-12-13T23:08:14.819Z,12.57
2023-12-13T23:10:42.400Z,14.02
2023-12-13T23:13:09.873Z,14.60
2023-12-13T23:15:37.323Z,11.80
2023-12-13T23:18:05.003Z,15.32
2023-12-13T23:20:32.634Z,10.15
2023-12-13T23:23:00.744Z,11.30
2023-12-13T23:25:29.579Z,14.85
2023-12-13T23:27:57.408Z,11.05
2023-12-13T23:30:24.858Z,13.57
2023-12-13T23:32:52.291Z,12.85
2023-12-13T23:35:20.304Z,13.05
2023-12-13T23:37:47.798Z,12.02
2023-12-13T23:40:15.281Z,12.65
2023-12-13T23:42:44.039Z,14.15
2023-12-13T23:45:11.934Z,12.23
2023-12-13T23:47:39.328Z,15.07
2023-12-13T23:50:07.845Z,12.18
2023-12-13T23:52:35.728Z,14.40
2023-12-13T23:55:03.325Z,14.38
2023-12-13T23:57:30.754Z,14.55
2023-12-13T23:59:59.521Z,14.70
